Time;durP1;ratioP1;P1;durP2;ratioP2;P2;SDS_P1;SDS_P2;PMS_P1;PMS_P2;Temp;Humidity;BMP_temperature;BMP_pressure;BME280_temperature;BME280_humidity;BME280_pressure;Samples;Min_cycle;Max_cycle;Signal;HPM_P1;HPM_P2
2022/02/03 00:07:24;;;;;;;;;;;8.00;99.90;;;;;;5104665;28;20031;-79
2022/02/03 00:23:31;;;;;;;;;;;8.00;99.90;;;;;;5105070;28;19927;-79
2022/02/03 00:25:50;;;;;;;;;;;7.90;99.90;;;;;;5107535;28;19923;-79
2022/02/03 00:36:10;;;;;;;;;;;7.90;99.90;;;;;;5102297;28;19943;-78
2022/02/03 00:49:11;;;;;;;;;;;7.90;99.90;;;;;;5106925;28;19923;-79
2022/02/03 00:51:41;;;;;;;;;;;7.90;99.90;;;;;;5105778;28;19923;-78
2022/02/03 00:54:10;;;;;;;;;;;7.90;99.90;;;;;;5101768;28;19912;-77
2022/02/03 00:56:37;;;;;;;;;;;7.90;99.90;;;;;;5087027;28;19955;-78
2022/02/03 00:59:08;;;;;;;;;;;7.90;99.90;;;;;;5101340;28;19915;-78
2022/02/03 01:01:35;;;;;;;;;;;7.90;99.90;;;;;;5103164;28;19923;-78
2022/02/03 01:04:04;;;;;;;;;;;7.90;99.90;;;;;;5086202;28;19997;-78
2022/02/03 01:06:32;;;;;;;;;;;7.90;99.90;;;;;;5081216;28;19922;-78
2022/02/03 01:08:58;;;;;;;;;;;7.90;99.90;;;;;;5079811;28;19920;-78
2022/02/03 01:11:31;;;;;;;;;;;7.90;99.90;;;;;;5103087;28;19912;-78
2022/02/03 01:14:11;;;;;;;;;;;7.90;99.90;;;;;;5082181;28;19963;-78
2022/02/03 01:17:08;;;;;;;;;;;7.90;99.90;;;;;;5081980;28;19927;-77
2022/02/03 01:19:48;;;;;;;;;;;7.90;99.90;;;;;;5103125;28;20285;-79
2022/02/03 01:44:25;;;;;;;;;;;7.90;99.90;;;;;;5065024;28;20014;-78
2022/02/03 01:47:00;;;;;;;;;;;7.80;99.90;;;;;;5102844;28;19915;-78
2022/02/03 01:52:17;;;;;;;;;;;7.80;99.90;;;;;;5103056;28;20008;-78
2022/02/03 01:54:45;;;;;;;;;;;7.80;99.90;;;;;;5088139;28;19919;-78
2022/02/03 01:57:12;;;;;;;;;;;7.80;99.90;;;;;;5103868;28;19961;-80
2022/02/03 01:59:39;;;;;;;;;;;7.80;99.90;;;;;;5097412;28;20389;-79
2022/02/03 02:02:05;;;;;;;;;;;7.80;99.90;;;;;;5085587;28;19919;-78
2022/02/03 02:04:34;;;;;;;;;;;7.80;99.90;;;;;;5082961;28;20214;-79
2022/02/03 02:07:32;;;;;;;;;;;7.80;99.90;;;;;;5109790;28;20323;-79
2022/02/03 02:13:02;;;;;;;;;;;7.80;99.90;;;;;;5019447;28;20271;-79
2022/02/03 02:41:06;;;;;;;;;;;7.90;99.90;;;;;;5006123;28;20682;-79
2022/02/03 02:43:32;;;;;;;;;;;7.90;99.90;;;;;;5023023;28;19969;-77
2022/02/03 02:46:01;;;;;;;;;;;7.80;99.90;;;;;;5070999;28;20393;-78
2022/02/03 02:48:37;;;;;;;;;;;7.90;99.90;;;;;;5099341;28;19912;-79
2022/02/03 02:51:09;;;;;;;;;;;7.90;99.90;;;;;;5106389;28;19920;-77
2022/02/03 03:02:39;;;;;;;;;;;7.80;99.90;;;;;;5106678;28;19912;-78
2022/02/03 03:30:21;;;;;;;;;;;7.80;99.90;;;;;;5105197;28;20268;-78
2022/02/03 03:36:07;;;;;;;;;;;7.80;99.90;;;;;;5106173;28;19931;-78
2022/02/03 03:38:33;;;;;;;;;;;7.80;99.90;;;;;;5092313;28;19912;-78
2022/02/03 03:41:00;;;;;;;;;;;7.80;99.90;;;;;;5085701;28;20097;-78
2022/02/03 03:43:25;;;;;;;;;;;7.80;99.90;;;;;;5100502;28;19913;-79
2022/02/03 03:45:52;;;;;;;;;;;7.80;99.90;;;;;;5095401;27;19927;-77
2022/02/03 03:48:18;;;;;;;;;;;7.80;99.90;;;;;;5103185;28;19912;-79
2022/02/03 03:50:47;;;;;;;;;;;7.80;99.90;;;;;;5098303;28;20211;-77
2022/02/03 03:53:21;;;;;;;;;;;7.80;99.90;;;;;;5101056;28;20394;-77
2022/02/03 03:59:08;;;;;;;;;;;7.80;99.90;;;;;;5037710;28;20014;-79
2022/02/03 04:45:44;;;;;;;;;;;7.60;99.90;;;;;;5108712;28;19912;-78
2022/02/03 05:05:04;;;;;;;;;;;7.60;99.90;;;;;;5101174;28;19915;-77
2022/02/03 05:08:03;;;;;;;;;;;7.50;99.90;;;;;;5079744;28;19923;-77
2022/02/03 05:20:16;;;;;;;;;;;7.50;99.90;;;;;;5108138;28;19918;-76
2022/02/03 05:45:26;;;;;;;;;;;7.40;99.90;;;;;;5106253;28;20215;-80
2022/02/03 06:13:42;;;;;;;;;;;7.40;99.90;;;;;;5101620;28;20269;-77
2022/02/03 06:21:31;;;;;;;;;;;7.30;99.90;;;;;;5110092;28;19922;-77
2022/02/03 06:24:14;;;;;;;;;;;7.30;99.90;;;;;;5083005;28;20222;-77
2022/02/03 06:29:27;;;;;;;;;;;7.30;99.90;;;;;;5101446;28;20264;-78
2022/02/03 06:31:53;;;;;;;;;;;7.30;99.90;;;;;;5101319;28;19912;-78
2022/02/03 06:34:21;;;;;;;;;;;7.30;99.90;;;;;;5078924;28;19920;-77
2022/02/03 06:36:48;;;;;;;;;;;7.30;99.90;;;;;;5085377;28;20203;-77
2022/02/03 06:39:15;;;;;;;;;;;7.30;99.90;;;;;;5102546;28;19951;-77
2022/02/03 06:41:40;;;;;;;;;;;7.30;99.90;;;;;;5108518;28;19993;-78
2022/02/03 06:44:06;;;;;;;;;;;7.30;99.90;;;;;;5102795;28;20282;-76
2022/02/03 06:46:33;;;;;;;;;;;7.30;99.90;;;;;;5087005;28;19916;-78
2022/02/03 06:49:13;;;;;;;;;;;7.30;99.90;;;;;;5093019;28;19923;-78
2022/02/03 06:51:47;;;;;;;;;;;7.30;99.90;;;;;;5118710;28;19916;-78
2022/02/03 06:54:20;;;;;;;;;;;7.30;99.90;;;;;;5085573;28;20249;-78
2022/02/03 06:56:55;;;;;;;;;;;7.30;99.90;;;;;;5118858;28;19990;-77
2022/02/03 06:59:27;;;;;;;;;;;7.30;99.90;;;;;;5115679;27;19919;-77
2022/02/03 07:01:52;;;;;;;;;;;7.20;99.90;;;;;;5095291;28;19960;-77
2022/02/03 07:04:25;;;;;;;;;;;7.30;99.90;;;;;;5113758;28;19916;-77
2022/02/03 07:06:51;;;;;;;;;;;7.30;99.90;;;;;;5080618;28;19920;-78
2022/02/03 07:09:17;;;;;;;;;;;7.30;99.90;;;;;;5101374;28;19912;-77
2022/02/03 07:11:43;;;;;;;;;;;7.30;99.90;;;;;;5107172;28;19978;-78
2022/02/03 07:14:10;;;;;;;;;;;7.30;99.90;;;;;;5080189;28;20022;-78
2022/02/03 07:16:45;;;;;;;;;;;7.30;99.90;;;;;;5088374;28;19994;-77
2022/02/03 07:19:11;;;;;;;;;;;7.30;99.90;;;;;;5091117;28;20002;-80
2022/02/03 07:21:37;;;;;;;;;;;7.30;99.90;;;;;;5114985;28;20046;-77
2022/02/03 07:24:02;;;;;;;;;;;7.30;99.90;;;;;;5114039;28;19919;-77
2022/02/03 07:26:28;;;;;;;;;;;7.30;99.90;;;;;;5114117;28;20011;-76
2022/02/03 07:28:53;;;;;;;;;;;7.30;99.90;;;;;;5115077;28;19948;-76
2022/02/03 07:31:19;;;;;;;;;;;7.30;99.90;;;;;;5111711;28;19912;-78
2022/02/03 07:33:45;;;;;;;;;;;7.20;99.90;;;;;;5113581;28;19919;-77
2022/02/03 07:36:11;;;;;;;;;;;7.30;99.90;;;;;;5111282;28;19912;-77
2022/02/03 07:38:40;;;;;;;;;;;7.30;99.90;;;;;;5092852;28;19923;-77
2022/02/03 07:41:06;;;;;;;;;;;7.20;99.90;;;;;;5092895;28;19912;-78
2022/02/03 07:43:31;;;;;;;;;;;7.20;99.90;;;;;;5094893;28;19938;-78
2022/02/03 07:45:58;;;;;;;;;;;7.20;99.90;;;;;;5091301;28;20319;-79
2022/02/03 07:48:24;;;;;;;;;;;7.20;99.90;;;;;;5109690;28;19927;-80
2022/02/03 07:50:49;;;;;;;;;;;7.20;99.90;;;;;;5094794;28;20222;-79
2022/02/03 07:53:15;;;;;;;;;;;7.20;99.90;;;;;;5111664;28;20321;-80
2022/02/03 07:55:40;;;;;;;;;;;7.20;99.90;;;;;;5114074;28;19915;-80
2022/02/03 07:58:06;;;;;;;;;;;7.20;99.90;;;;;;5112730;28;19920;-79
2022/02/03 08:00:32;;;;;;;;;;;7.20;99.90;;;;;;5112236;28;19920;-81
2022/02/03 08:02:57;;;;;;;;;;;7.20;99.90;;;;;;5094946;28;20273;-79
2022/02/03 08:05:25;;;;;;;;;;;7.20;99.90;;;;;;5109814;28;19959;-78
2022/02/03 08:07:51;;;;;;;;;;;7.20;99.90;;;;;;5096666;28;19923;-78
2022/02/03 08:10:30;;;;;;;;;;;7.20;99.90;;;;;;5094145;28;19955;-79
2022/02/03 08:12:56;;;;;;;;;;;7.20;99.90;;;;;;5095676;28;20011;-76
2022/02/03 08:15:24;;;;;;;;;;;7.20;99.90;;;;;;5095799;28;19920;-78
2022/02/03 08:17:52;;;;;;;;;;;7.20;99.90;;;;;;5114334;28;19957;-79
2022/02/03 08:20:19;;;;;;;;;;;7.20;99.90;;;;;;5096301;28;19912;-78
2022/02/03 08:22:55;;;;;;;;;;;7.20;99.90;;;;;;5109309;28;19912;-76
2022/02/03 08:25:25;;;;;;;;;;;7.20;99.90;;;;;;5079303;28;19918;-76
2022/02/03 08:28:25;;;;;;;;;;;7.20;99.90;;;;;;5105990;28;19920;-77
2022/02/03 08:30:47;;;;;;;;;;;7.20;99.90;;;;;;5107774;28;19927;-76
2022/02/03 08:33:19;;;;;;;;;;;7.20;99.90;;;;;;5090941;28;19943;-76
2022/02/03 08:35:49;;;;;;;;;;;7.20;99.90;;;;;;5086228;28;19920;-76
2022/02/03 08:41:01;;;;;;;;;;;7.20;99.90;;;;;;5105626;28;19923;-76
2022/02/03 08:43:30;;;;;;;;;;;7.30;99.90;;;;;;5089532;27;19918;-76
2022/02/03 08:45:56;;;;;;;;;;;7.30;99.90;;;;;;5092663;28;20014;-75
2022/02/03 08:48:21;;;;;;;;;;;7.30;99.90;;;;;;5113052;28;20249;-76
2022/02/03 08:50:47;;;;;;;;;;;7.30;99.90;;;;;;5111639;28;19965;-76
2022/02/03 08:53:36;;;;;;;;;;;7.30;99.90;;;;;;5108252;28;20014;-77
2022/02/03 08:59:28;;;;;;;;;;;7.30;99.90;;;;;;5099154;27;19970;-76
2022/02/03 09:52:50;;;;;;;;;;;7.20;99.90;;;;;;5108464;28;19923;-79
2022/02/03 09:58:11;;;;;;;;;;;7.20;99.90;;;;;;5106517;28;20364;-77
2022/02/03 10:03:16;;;;;;;;;;;7.10;99.90;;;;;;5106033;28;20019;-79
2022/02/03 10:05:54;;;;;;;;;;;7.10;99.90;;;;;;5088476;28;19941;-78
2022/02/03 10:08:20;;;;;;;;;;;7.10;99.90;;;;;;5108910;28;20570;-78
2022/02/03 10:10:47;;;;;;;;;;;7.10;99.90;;;;;;5102865;28;19916;-79
2022/02/03 10:13:19;;;;;;;;;;;7.10;99.90;;;;;;5098161;28;19916;-79
2022/02/03 10:15:45;;;;;;;;;;;7.10;99.90;;;;;;5078238;28;19916;-79
2022/02/03 10:18:21;;;;;;;;;;;7.00;99.90;;;;;;5111058;28;19916;-77
2022/02/03 10:20:48;;;;;;;;;;;7.00;99.90;;;;;;5081750;28;19930;-77
2022/02/03 10:23:19;;;;;;;;;;;7.00;99.90;;;;;;5098108;28;20010;-76
2022/02/03 10:25:48;;;;;;;;;;;7.10;99.90;;;;;;5089978;28;19927;-77
2022/02/03 10:28:15;;;;;;;;;;;7.10;99.90;;;;;;5105999;28;19927;-80
2022/02/03 10:30:48;;;;;;;;;;;7.10;99.90;;;;;;5108858;28;19916;-77
2022/02/03 10:33:14;;;;;;;;;;;7.10;99.90;;;;;;5106140;28;20320;-79
2022/02/03 10:35:47;;;;;;;;;;;7.10;99.90;;;;;;5107359;28;20238;-79
2022/02/03 10:41:11;;;;;;;;;;;7.10;99.90;;;;;;5106313;28;19954;-79
2022/02/03 10:46:49;;;;;;;;;;;7.10;99.90;;;;;;5102205;28;19920;-78
2022/02/03 10:58:11;;;;;;;;;;;7.00;99.90;;;;;;5061194;28;19915;-80
2022/02/03 11:06:27;;;;;;;;;;;7.10;99.90;;;;;;5109973;28;19965;-79
2022/02/03 11:11:37;;;;;;;;;;;6.90;99.90;;;;;;5106300;28;19920;-78
2022/02/03 11:14:04;;;;;;;;;;;7.00;99.90;;;;;;5089543;28;19943;-78
2022/02/03 11:16:29;;;;;;;;;;;7.00;99.90;;;;;;5082767;28;19995;-78
2022/02/03 11:18:57;;;;;;;;;;;7.00;99.90;;;;;;5106558;28;20274;-77
2022/02/03 11:21:23;;;;;;;;;;;7.00;99.90;;;;;;5108851;28;20020;-78
2022/02/03 11:23:58;;;;;;;;;;;7.00;99.90;;;;;;5079180;28;19916;-77
2022/02/03 11:26:37;;;;;;;;;;;7.00;99.90;;;;;;5080437;28;19931;-77
2022/02/03 11:32:20;;;;;;;;;;;7.00;99.90;;;;;;5107186;28;19953;-78
2022/02/03 11:34:58;;;;;;;;;;;7.00;99.90;;;;;;5107373;28;19958;-78
2022/02/03 11:46:16;;;;;;;;;;;7.10;99.90;;;;;;5100069;28;20042;-78
2022/02/03 11:51:41;;;;;;;;;;;7.10;99.90;;;;;;5111454;28;20344;-78
2022/02/03 11:57:29;;;;;;;;;;;7.00;99.90;;;;;;5110841;28;20016;-78
2022/02/03 12:02:56;;;;;;;;;;;7.00;99.90;;;;;;5109737;28;19923;-77
2022/02/03 12:06:10;;;;;;;;;;;7.00;99.90;;;;;;5109269;28;19962;-77
2022/02/03 12:19:04;;;;;;;;;;;7.30;99.90;;;;;;5110856;28;20386;-78
2022/02/03 12:21:39;;;;;;;;;;;7.20;99.90;;;;;;5105245;27;19915;-78
2022/02/03 12:24:28;;;;;;;;;;;7.30;99.90;;;;;;5091215;28;20014;-79
2022/02/03 12:27:04;;;;;;;;;;;7.20;99.90;;;;;;5092254;28;19975;-78
2022/02/03 12:29:49;;;;;;;;;;;7.20;99.90;;;;;;5085262;28;19916;-77
2022/02/03 12:40:13;;;;;;;;;;;7.20;99.90;;;;;;5107537;28;19916;-78
2022/02/03 12:42:57;;;;;;;;;;;7.20;99.90;;;;;;5090529;28;19915;-79
2022/02/03 12:45:27;;;;;;;;;;;7.10;99.90;;;;;;5091747;28;19919;-78
2022/02/03 12:48:03;;;;;;;;;;;7.10;99.90;;;;;;5092246;28;19920;-77
2022/02/03 12:50:29;;;;;;;;;;;7.10;99.90;;;;;;5092084;28;19919;-78
2022/02/03 12:52:56;;;;;;;;;;;7.10;99.90;;;;;;5093080;28;19973;-77
2022/02/03 12:55:32;;;;;;;;;;;7.10;99.90;;;;;;5105197;28;19935;-77
2022/02/03 12:57:59;;;;;;;;;;;7.10;99.90;;;;;;5108122;28;20382;-78
2022/02/03 13:00:30;;;;;;;;;;;7.20;99.90;;;;;;5092335;28;19922;-75
2022/02/03 13:02:57;;;;;;;;;;;7.20;99.90;;;;;;5106960;28;19912;-80
2022/02/03 13:05:24;;;;;;;;;;;7.20;99.90;;;;;;5088997;28;19916;-79
2022/02/03 13:07:54;;;;;;;;;;;7.30;99.90;;;;;;5094607;28;20081;-79
2022/02/03 13:10:21;;;;;;;;;;;7.30;99.90;;;;;;5088074;28;20318;-79
2022/02/03 13:12:55;;;;;;;;;;;7.20;99.90;;;;;;5088340;28;19919;-77
2022/02/03 13:15:38;;;;;;;;;;;7.20;99.90;;;;;;5070886;28;19916;-78
2022/02/03 13:18:09;;;;;;;;;;;7.20;99.90;;;;;;5086140;28;20258;-78
2022/02/03 13:20:46;;;;;;;;;;;7.20;99.90;;;;;;5089525;28;19912;-78
2022/02/03 13:23:18;;;;;;;;;;;7.20;99.90;;;;;;5087390;28;20026;-78
2022/02/03 13:26:01;;;;;;;;;;;7.20;99.90;;;;;;5058198;28;19920;-76
2022/02/03 13:28:40;;;;;;;;;;;7.20;99.90;;;;;;5083707;28;19999;-78
2022/02/03 13:31:27;;;;;;;;;;;7.30;99.90;;;;;;5069929;28;19916;-78
2022/02/03 13:34:03;;;;;;;;;;;7.30;99.90;;;;;;5084104;28;20003;-78
2022/02/03 13:36:41;;;;;;;;;;;7.30;99.90;;;;;;5085491;28;19999;-78
2022/02/03 13:39:13;;;;;;;;;;;7.30;99.90;;;;;;5087144;28;20386;-78
2022/02/03 13:41:42;;;;;;;;;;;7.20;99.90;;;;;;5086177;28;19920;-77
2022/02/03 13:44:10;;;;;;;;;;;7.20;99.90;;;;;;5087676;28;20012;-77
2022/02/03 13:46:36;;;;;;;;;;;7.20;99.90;;;;;;5086707;28;19923;-76
2022/02/03 13:49:03;;;;;;;;;;;7.20;99.90;;;;;;5087399;28;20230;-77
2022/02/03 13:51:30;;;;;;;;;;;7.20;99.90;;;;;;5070559;28;19916;-78
2022/02/03 13:54:11;;;;;;;;;;;7.20;99.90;;;;;;5070378;28;19923;-78
2022/02/03 14:10:30;;;;;;;;;;;7.20;99.90;;;;;;5107267;28;19942;-77
2022/02/03 14:21:09;;;;;;;;;;;7.20;99.90;;;;;;5104900;28;19916;-77
2022/02/03 14:29:11;;;;;;;;;;;7.20;99.90;;;;;;5107279;28;19961;-76
2022/02/03 14:31:38;;;;;;;;;;;7.20;99.90;;;;;;5086004;28;19922;-76
2022/02/03 14:34:08;;;;;;;;;;;7.20;99.90;;;;;;5108840;28;19938;-77
2022/02/03 14:36:34;;;;;;;;;;;7.10;99.90;;;;;;5108018;28;20346;-77
2022/02/03 14:39:12;;;;;;;;;;;7.10;99.90;;;;;;5092890;28;19916;-76
2022/02/03 14:41:44;;;;;;;;;;;7.10;99.90;;;;;;5089770;28;19922;-76
2022/02/03 14:44:10;;;;;;;;;;;7.10;99.90;;;;;;5091964;28;19923;-76
2022/02/03 14:46:35;;;;;;;;;;;7.10;99.90;;;;;;5109374;28;19938;-76
2022/02/03 14:49:01;;;;;;;;;;;7.10;99.90;;;;;;5092071;28;20302;-76
2022/02/03 14:51:33;;;;;;;;;;;7.10;99.90;;;;;;5092172;28;20307;-76
2022/02/03 14:59:11;;;;;;;;;;;7.10;99.90;;;;;;5106170;28;19922;-77
2022/02/03 15:01:39;;;;;;;;;;;7.20;99.90;;;;;;5088845;28;20227;-77
2022/02/03 15:04:08;;;;;;;;;;;7.20;99.90;;;;;;5089537;28;19920;-76
2022/02/03 15:06:52;;;;;;;;;;;7.20;99.90;;;;;;5106910;28;19924;-76
2022/02/03 15:09:46;;;;;;;;;;;7.20;99.90;;;;;;5110403;28;20436;-78
2022/02/03 15:12:10;;;;;;;;;;;7.20;99.90;;;;;;5106356;28;19916;-76
2022/02/03 15:14:37;;;;;;;;;;;7.20;99.90;;;;;;5102580;28;19940;-76
2022/02/03 15:17:03;;;;;;;;;;;7.20;99.90;;;;;;5104555;28;19916;-77
2022/02/03 15:19:29;;;;;;;;;;;7.20;99.90;;;;;;5092671;28;19922;-78
2022/02/03 15:21:54;;;;;;;;;;;7.20;99.90;;;;;;5112602;28;19920;-77
2022/02/03 15:24:20;;;;;;;;;;;7.20;99.90;;;;;;5094910;28;19916;-77
2022/02/03 15:26:45;;;;;;;;;;;7.10;99.90;;;;;;5095375;28;19927;-77
2022/02/03 15:29:12;;;;;;;;;;;7.10;99.90;;;;;;5113800;28;20587;-77
2022/02/03 15:31:40;;;;;;;;;;;7.10;99.90;;;;;;5088870;28;20006;-77
2022/02/03 15:34:10;;;;;;;;;;;7.10;99.90;;;;;;5110251;27;19955;-76
2022/02/03 15:36:37;;;;;;;;;;;7.10;99.90;;;;;;5112598;28;19919;-76
2022/02/03 15:39:08;;;;;;;;;;;7.10;99.90;;;;;;5092414;28;19916;-76
2022/02/03 15:41:34;;;;;;;;;;;7.10;99.90;;;;;;5089841;28;19928;-77
2022/02/03 15:44:01;;;;;;;;;;;7.10;99.90;;;;;;5092851;28;20004;-77
2022/02/03 15:46:29;;;;;;;;;;;7.10;99.90;;;;;;5092926;28;19924;-77
2022/02/03 16:18:12;;;;;;;;;;;7.10;99.90;;;;;;5094244;28;19923;-78
2022/02/03 16:20:44;;;;;;;;;;;7.10;99.90;;;;;;5088077;28;19919;-77
2022/02/03 16:23:42;;;;;;;;;;;7.10;99.90;;;;;;5107830;28;19920;-76
2022/02/03 16:52:49;;;;;;;;;;;7.00;99.90;;;;;;5107946;28;19922;-77
2022/02/03 16:55:19;;;;;;;;;;;7.10;99.90;;;;;;5091145;28;19942;-77
2022/02/03 16:57:47;;;;;;;;;;;7.10;99.90;;;;;;5089428;28;19920;-76
2022/02/03 17:00:15;;;;;;;;;;;7.10;99.90;;;;;;5109272;28;20516;-77
2022/02/03 17:02:41;;;;;;;;;;;7.10;99.90;;;;;;5090887;28;19924;-77
2022/02/03 17:05:07;;;;;;;;;;;7.10;99.90;;;;;;5077245;28;19992;-76
2022/02/03 17:07:32;;;;;;;;;;;7.10;99.90;;;;;;5091661;28;19923;-76
2022/02/03 17:09:58;;;;;;;;;;;7.10;99.90;;;;;;5090131;28;19920;-76
2022/02/03 17:12:23;;;;;;;;;;;7.10;99.90;;;;;;5091783;28;19919;-77
2022/02/03 17:14:49;;;;;;;;;;;7.10;99.90;;;;;;5110260;28;19927;-77
2022/02/03 17:17:16;;;;;;;;;;;7.10;99.90;;;;;;5110347;28;19965;-76
2022/02/03 17:19:42;;;;;;;;;;;7.10;99.90;;;;;;5109944;28;19915;-78
2022/02/03 17:22:09;;;;;;;;;;;7.10;99.90;;;;;;5088946;28;20218;-77
2022/02/03 17:24:37;;;;;;;;;;;7.10;99.90;;;;;;5105041;28;19963;-77
2022/02/03 17:27:11;;;;;;;;;;;7.10;99.90;;;;;;5104035;28;19930;-77
2022/02/03 17:45:09;;;;;;;;;;;7.10;99.90;;;;;;5102735;28;20008;-77
2022/02/03 17:55:18;;;;;;;;;;;7.00;99.90;;;;;;5099644;28;19961;-78
2022/02/03 18:10:51;;;;;;;;;;;7.00;99.90;;;;;;5101081;28;19942;-78
2022/02/03 18:32:56;;;;;;;;;;;7.00;99.90;;;;;;5109599;28;20230;-78
2022/02/03 18:46:49;;;;;;;;;;;6.90;99.90;;;;;;5110504;28;19923;-77
2022/02/03 18:51:37;;;;;;;;;;;6.90;99.90;;;;;;5113929;28;19996;-77
2022/02/03 18:54:29;;;;;;;;;;;6.90;99.90;;;;;;5094086;28;20022;-77
2022/02/03 18:57:00;;;;;;;;;;;6.80;99.90;;;;;;5110230;28;19924;-77
2022/02/03 19:02:28;;;;;;;;;;;6.80;99.90;;;;;;5113122;28;19916;-77
2022/02/03 19:28:29;;;;;;;;;;;6.60;99.90;;;;;;5112234;28;19934;-77
2022/02/03 20:10:52;;;;;;;;;;;6.30;99.90;;;;;;5104606;28;19950;-77
2022/02/03 20:13:17;;;;;;;;;;;6.30;99.90;;;;;;5108338;28;19923;-78
2022/02/03 20:15:44;;;;;;;;;;;6.30;99.90;;;;;;5089955;28;19916;-77
2022/02/03 20:18:14;;;;;;;;;;;6.20;99.90;;;;;;5105533;28;20007;-77
2022/02/03 20:20:42;;;;;;;;;;;6.20;99.90;;;;;;5105700;28;20303;-77
2022/02/03 20:23:11;;;;;;;;;;;6.20;99.90;;;;;;5107207;28;19919;-77
2022/02/03 20:25:38;;;;;;;;;;;6.20;99.90;;;;;;5107513;28;19920;-78
2022/02/03 20:28:04;;;;;;;;;;;6.10;99.90;;;;;;5105993;28;20031;-77
2022/02/03 20:30:30;;;;;;;;;;;6.10;99.90;;;;;;5106325;28;20685;-77
2022/02/03 20:32:56;;;;;;;;;;;6.00;99.90;;;;;;5080881;28;20374;-77
2022/02/03 20:35:21;;;;;;;;;;;6.00;99.90;;;;;;5107029;28;19915;-77
2022/02/03 20:37:47;;;;;;;;;;;5.90;99.90;;;;;;5075829;28;19916;-78
2022/02/03 20:40:12;;;;;;;;;;;5.90;99.90;;;;;;5104028;28;20015;-78
2022/02/03 20:42:38;;;;;;;;;;;5.90;99.90;;;;;;5093945;28;20011;-77
2022/02/03 20:45:04;;;;;;;;;;;5.90;99.90;;;;;;5100591;28;20257;-78
2022/02/03 20:47:31;;;;;;;;;;;5.90;99.90;;;;;;5112498;28;19959;-78
2022/02/03 20:50:01;;;;;;;;;;;5.90;99.90;;;;;;5089810;28;19920;-77
2022/02/03 20:52:27;;;;;;;;;;;5.80;99.90;;;;;;5101751;28;19916;-76
2022/02/03 20:54:53;;;;;;;;;;;5.80;99.90;;;;;;5078003;28;19920;-77
2022/02/03 20:57:18;;;;;;;;;;;5.70;99.90;;;;;;5106838;28;19916;-77
2022/02/03 21:02:42;;;;;;;;;;;5.70;99.90;;;;;;5105071;28;20249;-77
2022/02/03 21:05:12;;;;;;;;;;;5.70;99.90;;;;;;5087014;28;20333;-77
2022/02/03 21:07:38;;;;;;;;;;;5.60;99.90;;;;;;5104496;28;20322;-77
2022/02/03 21:10:07;;;;;;;;;;;5.70;99.90;;;;;;5104074;28;19923;-76
2022/02/03 21:12:32;;;;;;;;;;;5.70;99.90;;;;;;5087036;28;19915;-76
2022/02/03 21:14:58;;;;;;;;;;;5.60;99.90;;;;;;5090587;28;20014;-77
2022/02/03 21:17:27;;;;;;;;;;;5.60;99.90;;;;;;5097610;28;20163;-77
2022/02/03 21:19:53;;;;;;;;;;;5.60;99.90;;;;;;5088641;28;19990;-77
2022/02/03 21:22:20;;;;;;;;;;;5.60;99.90;;;;;;5109355;28;19916;-78
2022/02/03 21:24:46;;;;;;;;;;;5.60;99.90;;;;;;5079022;28;19916;-78
2022/02/03 21:27:17;;;;;;;;;;;5.50;99.90;;;;;;5108916;28;19976;-77
2022/02/03 21:29:43;;;;;;;;;;;5.50;99.90;;;;;;5090271;28;19961;-78
2022/02/03 21:32:09;;;;;;;;;;;5.50;99.90;;;;;;5088758;28;19916;-77
2022/02/03 21:34:34;;;;;;;;;;;5.50;99.90;;;;;;5097514;28;19927;-77
2022/02/03 21:37:00;;;;;;;;;;;5.50;99.90;;;;;;5080524;28;19924;-76
2022/02/03 21:39:25;;;;;;;;;;;5.50;99.90;;;;;;5108816;28;20230;-77
2022/02/03 21:41:51;;;;;;;;;;;5.50;99.90;;;;;;5093155;28;20226;-77
2022/02/03 21:44:17;;;;;;;;;;;5.50;99.90;;;;;;5091486;28;19970;-78
2022/02/03 21:46:43;;;;;;;;;;;5.60;99.90;;;;;;5088249;28;20031;-78
2022/02/03 21:49:08;;;;;;;;;;;5.60;99.90;;;;;;5089544;28;20012;-78
2022/02/03 21:51:40;;;;;;;;;;;5.60;99.90;;;;;;5082826;28;20212;-78
2022/02/03 21:54:06;;;;;;;;;;;5.70;99.90;;;;;;5104352;28;20008;-78
2022/02/03 21:56:31;;;;;;;;;;;5.80;99.90;;;;;;5104555;27;20319;-77
2022/02/03 21:58:57;;;;;;;;;;;5.80;99.90;;;;;;5103674;28;20364;-77
2022/02/03 22:01:25;;;;;;;;;;;5.90;99.90;;;;;;5094374;28;19911;-77
2022/02/03 22:03:53;;;;;;;;;;;5.90;99.90;;;;;;5107884;28;19926;-78
2022/02/03 22:06:18;;;;;;;;;;;6.00;99.90;;;;;;5111019;28;20003;-77
2022/02/03 22:08:44;;;;;;;;;;;6.00;99.90;;;;;;5104783;28;20297;-78
2022/02/03 22:11:09;;;;;;;;;;;6.10;99.90;;;;;;5108844;28;19989;-78
2022/02/03 22:13:37;;;;;;;;;;;6.10;99.90;;;;;;5110922;28;20319;-77
2022/02/03 22:16:08;;;;;;;;;;;6.20;99.90;;;;;;5088487;28;19965;-78
2022/02/03 22:18:34;;;;;;;;;;;6.20;99.90;;;;;;5090178;28;19920;-78
2022/02/03 22:21:06;;;;;;;;;;;6.30;99.90;;;;;;5111977;28;19915;-77
2022/02/03 22:47:38;;;;;;;;;;;6.50;99.90;;;;;;5106431;28;19916;-77
2022/02/03 22:50:05;;;;;;;;;;;6.50;99.90;;;;;;5109805;28;19984;-78
2022/02/03 22:52:31;;;;;;;;;;;6.60;99.90;;;;;;5111769;28;19939;-81
2022/02/03 22:54:57;;;;;;;;;;;6.60;99.90;;;;;;5102530;28;20215;-78
2022/02/03 22:57:23;;;;;;;;;;;6.60;99.90;;;;;;5106204;28;19916;-79
2022/02/03 23:02:16;;;;;;;;;;;6.60;99.90;;;;;;5091882;28;19923;-77
2022/02/03 23:04:42;;;;;;;;;;;6.60;99.90;;;;;;5099516;28;19915;-78
2022/02/03 23:10:27;;;;;;;;;;;6.60;99.90;;;;;;5093314;28;20302;-77
2022/02/03 23:13:09;;;;;;;;;;;6.60;99.90;;;;;;5073801;28;20014;-78
2022/02/03 23:18:22;;;;;;;;;;;6.60;99.90;;;;;;5103697;28;20541;-79
2022/02/03 23:21:13;;;;;;;;;;;6.60;99.90;;;;;;5078554;28;19916;-79
2022/02/03 23:23:33;;;;;;;;;;;6.60;99.90;;;;;;5091288;28;19919;-78
2022/02/03 23:26:00;;;;;;;;;;;6.60;99.90;;;;;;5091475;28;19916;-78
2022/02/03 23:28:30;;;;;;;;;;;6.50;99.90;;;;;;5079736;28;19995;-77
2022/02/03 23:30:55;;;;;;;;;;;6.50;99.90;;;;;;5092021;28;19924;-79
2022/02/03 23:33:22;;;;;;;;;;;6.50;99.90;;;;;;5106488;28;20009;-77
2022/02/03 23:35:48;;;;;;;;;;;6.50;99.90;;;;;;5104068;28;19912;-77
2022/02/03 23:51:04;;;;;;;;;;;6.50;99.90;;;;;;5109467;28;19915;-77
